Time;durP1;ratioP1;P1;durP2;ratioP2;P2;SDS_P1;SDS_P2;PMS_P1;PMS_P2;Temp;Humidity;BMP_temperature;BMP_pressure;BME280_temperature;BME280_humidity;BME280_pressure;Samples;Min_cycle;Max_cycle;Signal;HPM_P1;HPM_P2
2022/10/29 00:01:22;;;;;;;6.33;3.00;;;22.90;53.50;22.00;101730.00;;;;5068553;28;20044;-73
2022/10/29 00:03:48;;;;;;;7.23;3.43;;;22.90;53.60;22.00;101731.00;;;;5068765;28;20497;-73
2022/10/29 00:06:14;;;;;;;6.32;3.13;;;22.90;53.60;22.00;101725.00;;;;5069778;28;20111;-73
2022/10/29 00:08:40;;;;;;;7.32;3.38;;;22.90;53.50;22.00;101728.00;;;;5072002;28;20039;-73
2022/10/29 00:11:19;;;;;;;6.75;2.90;;;23.00;53.60;22.00;101726.00;;;;5060353;28;20691;-74
2022/10/29 00:13:45;;;;;;;6.75;2.95;;;22.90;53.60;22.00;101726.00;;;;5056018;28;20053;-73
2022/10/29 00:16:13;;;;;;;6.43;3.30;;;22.90;53.60;22.00;101731.00;;;;5052215;28;20115;-73
2022/10/29 00:18:39;;;;;;;6.18;3.20;;;22.90;53.60;22.00;101724.00;;;;5054344;28;20062;-73
2022/10/29 00:21:07;;;;;;;4.17;2.80;;;22.90;53.60;21.90;101726.00;;;;5073552;28;20038;-73
2022/10/29 00:23:33;;;;;;;5.82;2.70;;;23.00;53.60;22.00;101721.00;;;;5054878;28;20078;-73
2022/10/29 00:25:59;;;;;;;6.07;3.22;;;22.90;53.50;22.00;101732.00;;;;5072291;28;20028;-73
2022/10/29 00:28:25;;;;;;;6.50;2.67;;;22.90;53.50;22.00;101718.00;;;;5072748;28;20035;-73
2022/10/29 00:30:51;;;;;;;5.38;3.33;;;22.90;53.60;22.00;101718.00;;;;5038026;28;20016;-73
2022/10/29 00:33:19;;;;;;;7.40;3.60;;;23.00;53.60;22.00;101717.00;;;;5072129;28;20036;-73
2022/10/29 00:35:56;;;;;;;7.30;2.90;;;22.90;53.60;22.00;101714.00;;;;5055291;28;20459;-73
2022/10/29 00:38:22;;;;;;;6.03;3.10;;;22.90;53.60;21.90;101728.00;;;;5055529;28;20449;-73
2022/10/29 00:40:48;;;;;;;5.13;3.33;;;22.90;53.60;21.90;101723.00;;;;5034269;28;20032;-73
2022/10/29 00:43:15;;;;;;;3.73;2.60;;;22.90;53.60;21.90;101736.00;;;;5055487;28;20027;-73
2022/10/29 00:45:43;;;;;;;;;;;22.90;53.60;21.90;101746.00;;;;5054620;28;20021;-73
2022/10/29 00:48:09;;;;;;;6.25;3.10;;;22.90;53.60;21.90;101750.00;;;;5055065;28;19931;-73
2022/10/29 00:50:34;;;;;;;6.80;3.03;;;22.90;53.50;21.90;101747.00;;;;5054623;28;20028;-73
2022/10/29 00:53:00;;;;;;;6.38;3.13;;;22.90;53.50;21.90;101746.00;;;;5074940;28;20024;-73
2022/10/29 00:55:26;;;;;;;7.43;3.00;;;22.90;53.50;21.90;101742.00;;;;5054106;28;20040;-73
2022/10/29 00:57:52;;;;;;;8.90;4.43;;;22.90;53.60;21.90;101746.00;;;;5043004;28;20124;-73
2022/10/29 01:00:18;;;;;;;6.20;2.93;;;22.90;53.50;21.90;101747.00;;;;5052084;28;20459;-73
2022/10/29 01:02:46;;;;;;;5.28;3.00;;;22.80;53.50;21.90;101749.00;;;;5055856;28;20451;-73
2022/10/29 01:05:20;;;;;;;4.43;2.90;;;22.80;53.60;21.90;101738.00;;;;5051531;28;20082;-73
2022/10/29 01:07:46;;;;;;;7.40;2.97;;;22.80;53.50;21.90;101734.00;;;;5038816;28;20394;-73
2022/10/29 01:10:11;;;;;;;4.20;2.47;;;22.90;53.60;21.90;101732.00;;;;5023519;28;20031;-73
2022/10/29 01:13:15;;;;;;;6.43;2.80;;;22.90;53.60;21.90;101730.00;;;;5055041;28;20032;-73
2022/10/29 01:16:15;;;;;;;5.10;3.30;;;22.80;53.60;21.90;101730.00;;;;5053711;28;20462;-73
2022/10/29 01:18:53;;;;;;;5.10;3.05;;;22.80;53.60;21.90;101725.00;;;;5021341;28;20056;-73
2022/10/29 01:21:21;;;;;;;5.75;3.20;;;22.80;53.60;21.90;101724.00;;;;5025234;28;20462;-73
2022/10/29 01:24:30;;;;;;;5.88;2.80;;;22.80;53.60;21.90;101720.00;;;;5072563;28;20061;-73
2022/10/29 01:27:04;;;;;;;;;;;22.80;53.60;21.90;101725.00;;;;5055687;28;20078;-74
2022/10/29 01:30:09;;;;;;;6.85;3.00;;;22.80;53.60;21.90;101722.00;;;;5053293;28;19916;-73
2022/10/29 01:32:50;;;;;;;7.47;3.10;;;22.80;53.50;21.80;101712.00;;;;5043224;28;20521;-73
2022/10/29 01:35:22;;;;;;;6.30;3.00;;;22.80;53.50;21.90;101712.00;;;;5068770;28;20541;-73
2022/10/29 01:38:01;;;;;;;6.55;3.17;;;22.80;53.50;21.80;101701.00;;;;5054052;28;20144;-73
2022/10/29 01:40:33;;;;;;;5.00;2.97;;;22.80;53.60;21.80;101706.00;;;;5055224;28;20036;-73
2022/10/29 01:43:10;;;;;;;7.30;2.70;;;22.80;53.60;21.80;101697.00;;;;5052931;28;20409;-73
2022/10/29 01:45:42;;;;;;;8.10;3.03;;;22.80;53.60;21.80;101700.00;;;;5041405;28;20024;-73
2022/10/29 01:48:17;;;;;;;9.02;3.08;;;22.80;53.60;21.80;101691.00;;;;5052772;28;20029;-73
2022/10/29 01:50:45;;;;;;;6.03;2.83;;;22.80;53.60;21.80;101686.00;;;;5051979;28;20194;-73
2022/10/29 01:53:11;;;;;;;7.13;3.00;;;22.70;53.60;21.80;101686.00;;;;5040907;28;20024;-73
2022/10/29 01:55:37;;;;;;;7.40;3.30;;;22.70;53.60;21.80;101690.00;;;;5053222;28;20063;-73
2022/10/29 01:58:04;;;;;;;6.90;3.17;;;22.80;53.70;21.80;101679.00;;;;5053595;28;20482;-73
2022/10/29 02:01:08;;;;;;;9.88;2.85;;;22.70;53.60;21.80;101688.00;;;;5059653;28;20098;-73
2022/10/29 02:03:43;;;;;;;5.18;2.78;;;22.70;53.60;21.80;101689.00;;;;5070439;28;20032;-73
2022/10/29 02:06:42;;;;;;;7.60;3.40;;;22.80;53.70;21.80;101686.00;;;;5071238;28;20478;-73
2022/10/29 02:09:22;;;;;;;6.43;2.53;;;22.80;53.70;21.80;101681.00;;;;5051519;28;20043;-73
2022/10/29 02:11:51;;;;;;;7.10;2.95;;;22.70;53.60;21.80;101684.00;;;;5055956;28;20490;-73
2022/10/29 02:14:21;;;;;;;7.20;3.20;;;22.70;53.60;21.80;101681.00;;;;5049642;28;20112;-73
2022/10/29 02:16:47;;;;;;;5.75;2.90;;;22.70;53.60;21.80;101682.00;;;;5054835;28;20385;-73
2022/10/29 02:19:13;;;;;;;3.83;2.50;;;22.70;53.60;21.80;101686.00;;;;5051803;28;20032;-73
2022/10/29 02:21:39;;;;;;;6.77;2.87;;;22.70;53.60;21.80;101682.00;;;;5036920;28;20117;-73
2022/10/29 02:24:06;;;;;;;6.45;2.78;;;22.70;53.60;21.80;101669.00;;;;5070513;28;20412;-73
2022/10/29 02:26:32;;;;;;;5.60;3.00;;;22.70;53.60;21.80;101677.00;;;;5078188;28;20044;-73
2022/10/29 02:28:58;;;;;;;6.67;2.93;;;22.70;53.60;21.80;101667.00;;;;5051116;28;20034;-73
2022/10/29 02:31:23;;;;;;;5.18;3.00;;;22.80;53.70;21.80;101667.00;;;;5069023;28;20166;-73
2022/10/29 02:33:49;;;;;;;6.80;3.05;;;22.70;53.60;21.80;101680.00;;;;5070485;28;20036;-74
2022/10/29 02:36:15;;;;;;;5.47;3.17;;;22.70;53.60;21.80;101663.00;;;;5070268;28;20047;-73
2022/10/29 02:38:41;;;;;;;5.13;2.73;;;22.70;53.60;21.80;101662.00;;;;5069694;28;21064;-74
2022/10/29 02:41:06;;;;;;;5.40;2.53;;;22.70;53.60;21.80;101656.00;;;;5071195;28;20120;-73
2022/10/29 02:43:32;;;;;;;5.30;2.33;;;22.70;53.60;21.80;101651.00;;;;5071617;28;20055;-73
2022/10/29 02:46:17;;;;;;;5.13;2.80;;;22.70;53.60;21.80;101645.00;;;;5069169;28;20063;-73
2022/10/29 02:48:43;;;;;;;6.68;2.83;;;22.60;53.60;21.80;101648.00;;;;5052173;28;20029;-73
2022/10/29 02:51:09;;;;;;;2.83;2.53;;;22.70;53.60;21.70;101643.00;;;;5071070;28;20528;-73
2022/10/29 02:53:34;;;;;;;5.05;2.85;;;22.70;53.60;21.70;101627.00;;;;5052112;28;20024;-73
2022/10/29 02:56:00;;;;;;;4.30;2.80;;;22.60;53.60;21.70;101635.00;;;;5070899;28;20031;-74
2022/10/29 02:58:26;;;;;;;5.55;2.42;;;22.70;53.60;21.70;101643.00;;;;5071165;28;20043;-73
2022/10/29 03:00:52;;;;;;;3.93;2.10;;;22.60;53.60;21.70;101633.00;;;;5068933;28;20039;-73
2022/10/29 03:03:18;;;;;;;5.40;2.50;;;22.60;53.60;21.70;101641.00;;;;5051405;28;20601;-73
2022/10/29 03:05:43;;;;;;;4.35;2.35;;;22.60;53.50;21.70;101642.00;;;;5053024;28;20021;-73
2022/10/29 03:08:09;;;;;;;4.38;2.85;;;22.60;53.60;21.70;101647.00;;;;5061253;28;20028;-73
2022/10/29 03:10:35;;;;;;;6.47;2.33;;;22.60;53.60;21.70;101649.00;;;;5068826;28;20470;-73
2022/10/29 03:13:01;;;;;;;6.07;2.47;;;22.70;53.60;21.70;101652.00;;;;5069217;28;20056;-74
2022/10/29 03:15:26;;;;;;;4.20;2.15;;;22.60;53.50;21.70;101647.00;;;;5052567;28;20482;-73
2022/10/29 03:17:52;;;;;;;4.03;2.50;;;22.70;53.60;21.70;101644.00;;;;5052293;28;20029;-73
2022/10/29 03:20:18;;;;;;;3.33;2.40;;;22.60;53.50;21.70;101643.00;;;;5069264;28;20115;-73
2022/10/29 03:22:44;;;;;;;5.73;2.73;;;22.60;53.50;21.70;101641.00;;;;5071019;28;20842;-73
2022/10/29 03:25:09;;;;;;;5.03;2.60;;;22.60;53.60;21.70;101641.00;;;;5069095;28;20067;-73
2022/10/29 03:27:42;;;;;;;3.10;2.10;;;22.50;53.50;21.70;101636.00;;;;5070724;28;20052;-73
2022/10/29 03:30:15;;;;;;;5.05;2.40;;;22.60;53.50;21.70;101620.00;;;;5068546;28;20553;-73
2022/10/29 03:32:45;;;;;;;4.25;2.10;;;22.60;53.50;21.70;101634.00;;;;5044477;28;20033;-73
2022/10/29 03:35:13;;;;;;;6.15;2.15;;;22.60;53.50;21.70;101634.00;;;;5051458;28;20044;-73
2022/10/29 03:37:39;;;;;;;3.85;2.20;;;22.50;53.50;21.70;101644.00;;;;5052460;28;20033;-73
2022/10/29 03:40:05;;;;;;;4.18;2.40;;;22.60;53.50;21.70;101640.00;;;;5068690;28;20033;-73
2022/10/29 03:42:31;;;;;;;3.20;2.53;;;22.50;53.40;21.70;101643.00;;;;5071238;28;20124;-73
2022/10/29 03:44:57;;;;;;;2.43;2.10;;;22.50;53.40;21.70;101644.00;;;;5072852;28;20032;-73
2022/10/29 03:47:23;;;;;;;;;;;22.50;53.40;21.60;101636.00;;;;5075087;28;20468;-73
2022/10/29 03:49:49;;;;;;;4.35;2.20;;;22.60;53.60;21.70;101628.00;;;;5072829;28;19923;-73
2022/10/29 03:52:15;;;;;;;3.43;2.07;;;22.60;53.40;21.70;101630.00;;;;5074620;28;20024;-73
2022/10/29 03:54:40;;;;;;;4.43;2.33;;;22.50;53.30;21.60;101625.00;;;;5060708;28;20111;-73
2022/10/29 03:57:06;;;;;;;5.10;2.33;;;22.60;53.40;21.70;101631.00;;;;5055855;28;20060;-73
2022/10/29 03:59:32;;;;;;;3.70;2.03;;;22.60;53.40;21.60;101625.00;;;;5072693;28;20067;-73
2022/10/29 04:01:57;;;;;;;5.20;2.40;;;22.60;53.50;21.60;101623.00;;;;5073385;28;20107;-73
2022/10/29 04:04:23;;;;;;;4.60;2.40;;;22.50;53.40;21.60;101617.00;;;;5072866;28;20068;-73
2022/10/29 04:06:49;;;;;;;5.83;2.33;;;22.50;53.40;21.60;101613.00;;;;5073542;28;20924;-73
2022/10/29 04:09:15;;;;;;;4.13;2.30;;;22.60;53.40;21.70;101616.00;;;;5072777;28;20490;-73
2022/10/29 04:11:40;;;;;;;3.87;1.97;;;22.50;53.40;21.60;101614.00;;;;5073758;28;20497;-73
2022/10/29 04:14:06;;;;;;;4.37;2.10;;;22.50;53.40;21.70;101616.00;;;;5072641;28;20063;-73
2022/10/29 04:16:32;;;;;;;5.23;2.47;;;22.50;53.40;21.60;101626.00;;;;5073970;28;20119;-73
2022/10/29 04:18:58;;;;;;;5.03;1.93;;;22.50;53.40;21.60;101623.00;;;;5072278;28;20119;-73
2022/10/29 04:21:24;;;;;;;3.97;2.42;;;22.60;53.40;21.60;101625.00;;;;5073493;28;20057;-73
2022/10/29 04:23:50;;;;;;;5.72;2.08;;;22.60;53.40;21.60;101636.00;;;;5055816;28;20086;-73
2022/10/29 04:26:16;;;;;;;4.00;2.05;;;22.50;53.30;21.60;101645.00;;;;5072385;28;20032;-73
2022/10/29 04:28:41;;;;;;;2.63;1.88;;;22.50;53.30;21.60;101643.00;;;;5048819;28;20036;-73
2022/10/29 04:31:09;;;;;;;2.97;1.70;;;22.50;53.30;21.60;101641.00;;;;5082058;28;20024;-73
2022/10/29 04:33:35;;;;;;;5.15;2.22;;;22.50;53.40;21.60;101645.00;;;;5056051;28;20478;-73
2022/10/29 04:36:01;;;;;;;3.87;2.63;;;22.50;53.40;21.60;101649.00;;;;5070318;28;20028;-73
2022/10/29 04:38:27;;;;;;;4.80;2.17;;;22.50;53.40;21.60;101646.00;;;;5070704;28;20028;-73
2022/10/29 04:40:56;;;;;;;2.60;2.08;;;22.60;53.40;21.60;101655.00;;;;5054238;28;20506;-73
2022/10/29 04:43:22;;;;;;;3.15;1.58;;;22.50;53.30;21.70;101657.00;;;;5053492;28;20033;-73
2022/10/29 04:45:56;;;;;;;2.27;1.50;;;22.60;53.40;21.60;101657.00;;;;5071747;28;20350;-73
2022/10/29 04:48:22;;;;;;;4.90;1.90;;;22.60;53.40;21.60;101651.00;;;;5071542;28;20035;-73
2022/10/29 04:50:48;;;;;;;2.17;1.75;;;22.50;53.30;21.70;101646.00;;;;5046541;28;20025;-73
2022/10/29 04:53:14;;;;;;;2.70;2.10;;;22.50;53.30;21.60;101643.00;;;;5070938;28;20085;-73
2022/10/29 04:55:40;;;;;;;3.50;2.10;;;22.50;53.30;21.60;101645.00;;;;5053258;28;20494;-73
2022/10/29 04:58:06;;;;;;;4.23;2.30;;;22.50;53.30;21.60;101642.00;;;;5072205;28;20478;-73
2022/10/29 05:00:31;;;;;;;5.30;1.73;;;22.50;53.30;21.60;101645.00;;;;5056818;28;20832;-73
2022/10/29 05:02:57;;;;;;;5.13;2.43;;;22.50;53.30;21.60;101642.00;;;;5072149;28;20021;-73
2022/10/29 05:05:23;;;;;;;3.40;2.07;;;22.50;53.30;21.60;101648.00;;;;5052364;28;20060;-73
2022/10/29 05:07:55;;;;;;;3.70;1.83;;;22.50;53.30;21.60;101646.00;;;;5077192;28;20039;-73
2022/10/29 05:10:20;;;;;;;3.00;1.85;;;22.50;53.30;21.60;101642.00;;;;5051407;28;20059;-73
2022/10/29 05:12:46;;;;;;;4.40;1.83;;;22.50;53.30;21.60;101636.00;;;;5070668;28;20028;-73
2022/10/29 05:15:12;;;;;;;3.80;2.20;;;22.60;53.40;21.60;101637.00;;;;5071119;28;20497;-73
2022/10/29 05:17:38;;;;;;;4.63;1.97;;;22.50;53.30;21.60;101639.00;;;;5071034;28;20119;-73
2022/10/29 05:20:04;;;;;;;3.30;1.92;;;22.50;53.30;21.60;101634.00;;;;5069884;28;20028;-73
2022/10/29 05:22:30;;;;;;;5.90;2.42;;;22.60;53.40;21.60;101621.00;;;;5036605;28;20137;-73
2022/10/29 05:24:55;;;;;;;2.33;1.73;;;22.60;53.30;21.60;101623.00;;;;5070011;28;20040;-73
2022/10/29 05:27:21;;;;;;;3.70;1.80;;;22.50;53.30;21.60;101626.00;;;;5071468;28;20937;-73
2022/10/29 05:29:47;;;;;;;3.87;2.80;;;22.40;53.20;21.60;101631.00;;;;5069830;28;20096;-73
2022/10/29 05:32:13;;;;;;;4.73;2.80;;;22.60;53.40;21.60;101625.00;;;;5071912;28;20082;-73
2022/10/29 05:34:38;;;;;;;4.63;2.27;;;22.50;53.30;21.60;101619.00;;;;5013562;28;1054138;-73
2022/10/29 05:37:04;;;;;;;4.50;2.40;;;22.60;53.40;21.70;101626.00;;;;5071930;28;20090;-73
2022/10/29 05:39:30;;;;;;;4.27;2.50;;;22.60;53.30;21.60;101623.00;;;;5071499;28;20587;-73
2022/10/29 05:41:55;;;;;;;4.80;2.30;;;22.50;53.30;21.60;101615.00;;;;5071503;28;20059;-73
2022/10/29 05:44:21;;;;;;;3.83;1.90;;;22.50;53.20;21.60;101609.00;;;;5071339;28;20554;-74
2022/10/29 05:46:50;;;;;;;4.73;2.63;;;22.50;53.20;21.60;101606.00;;;;5071912;28;20067;-73
2022/10/29 05:49:15;;;;;;;4.47;2.53;;;22.50;53.20;21.60;101617.00;;;;5072769;28;20032;-73
2022/10/29 05:51:41;;;;;;;5.53;2.40;;;22.50;53.20;21.60;101613.00;;;;5070622;28;20031;-73
2022/10/29 05:54:07;;;;;;;4.97;2.60;;;22.50;53.20;21.60;101606.00;;;;5069610;28;20121;-74
2022/10/29 05:56:33;;;;;;;3.40;2.27;;;22.60;53.30;21.60;101603.00;;;;5072278;28;20067;-73
2022/10/29 05:58:58;;;;;;;5.33;2.17;;;22.50;53.20;21.60;101604.00;;;;5071080;28;20075;-73
2022/10/29 06:01:24;;;;;;;3.42;2.20;;;22.60;53.20;21.60;101595.00;;;;5071450;28;20398;-73
2022/10/29 06:03:50;;;;;;;4.97;2.13;;;22.50;53.10;21.60;101594.00;;;;5076845;28;20032;-73
2022/10/29 06:06:16;;;;;;;3.87;2.30;;;22.50;53.10;21.60;101604.00;;;;5069935;28;20028;-73
2022/10/29 06:08:41;;;;;;;4.38;2.45;;;22.50;53.10;21.60;101625.00;;;;5052120;28;20638;-73
2022/10/29 06:11:07;;;;;;;3.47;2.60;;;22.50;53.20;21.60;101612.00;;;;5069931;28;20036;-73
2022/10/29 06:13:33;;;;;;;4.07;2.43;;;22.60;53.20;21.60;101604.00;;;;5071744;28;20542;-73
2022/10/29 06:15:59;;;;;;;3.13;2.30;;;22.50;53.20;21.60;101594.00;;;;5052411;28;20056;-73
2022/10/29 06:18:26;;;;;;;3.80;2.40;;;22.60;53.90;21.60;101583.00;;;;5071596;28;20112;-73
2022/10/29 06:20:52;;;;;;;2.60;2.20;;;22.60;53.20;21.60;101585.00;;;;5070000;28;20032;-73
2022/10/29 06:23:18;;;;;;;;;;;22.50;53.10;21.60;101596.00;;;;5071607;28;20032;-73
2022/10/29 06:25:44;;;;;;;2.30;2.08;;;22.50;53.20;21.60;101614.00;;;;5070438;28;19912;-73
2022/10/29 06:28:13;;;;;;;2.87;2.17;;;22.60;53.20;21.60;101612.00;;;;5071133;28;20036;-74
2022/10/29 06:30:39;;;;;;;4.72;2.72;;;22.60;53.20;21.60;101628.00;;;;5070051;28;20451;-73
2022/10/29 06:33:05;;;;;;;3.60;2.63;;;22.50;53.10;21.60;101628.00;;;;5063137;28;20020;-73
2022/10/29 06:35:31;;;;;;;5.55;2.55;;;22.50;53.20;21.60;101619.00;;;;5068978;28;20032;-73
2022/10/29 06:37:57;;;;;;;5.13;2.78;;;22.50;53.20;21.60;101638.00;;;;5074085;28;20043;-73
2022/10/29 06:40:23;;;;;;;5.50;2.67;;;22.60;53.30;21.60;101625.00;;;;5069587;28;20028;-73
2022/10/29 06:42:49;;;;;;;4.90;2.23;;;22.60;53.30;21.60;101628.00;;;;5069776;28;20471;-73
2022/10/29 06:45:14;;;;;;;3.50;2.60;;;22.40;53.10;21.60;101627.00;;;;5068825;28;20059;-73
2022/10/29 06:47:44;;;;;;;4.18;2.45;;;22.50;53.20;21.60;101628.00;;;;5053559;28;20025;-73
2022/10/29 06:50:11;;;;;;;5.00;2.70;;;22.50;53.20;21.60;101624.00;;;;5066797;28;20486;-82
2022/10/29 06:52:37;;;;;;;4.07;2.45;;;22.50;53.20;21.60;101633.00;;;;5047487;28;20025;-73
2022/10/29 06:55:03;;;;;;;3.58;2.42;;;22.60;53.30;21.60;101629.00;;;;5069045;28;20027;-73
2022/10/29 06:57:29;;;;;;;;;;;22.60;53.30;21.60;101619.00;;;;5052343;28;20606;-73
2022/10/29 06:59:55;;;;;;;4.15;2.38;;;22.60;53.40;21.60;101621.00;;;;5069024;28;19958;-73
2022/10/29 07:02:21;;;;;;;4.72;2.63;;;22.50;53.10;21.60;101616.00;;;;5070798;28;20028;-73
2022/10/29 07:04:47;;;;;;;5.07;2.63;;;22.50;53.10;21.60;101620.00;;;;5052236;28;20064;-73
2022/10/29 07:07:13;;;;;;;6.87;2.90;;;22.50;53.20;21.60;101607.00;;;;5075211;28;20035;-73
2022/10/29 07:09:39;;;;;;;6.32;2.80;;;22.50;53.20;21.60;101606.00;;;;5060546;28;20451;-73
2022/10/29 07:12:05;;;;;;;5.22;2.88;;;22.50;53.20;21.60;101608.00;;;;5065302;28;20111;-73
2022/10/29 07:14:31;;;;;;;5.15;2.85;;;22.60;53.30;21.60;101609.00;;;;5067706;28;20033;-74
2022/10/29 07:16:57;;;;;;;4.72;2.88;;;22.50;53.20;21.60;101630.00;;;;5066367;28;20039;-73
2022/10/29 07:19:22;;;;;;;4.60;2.70;;;22.60;53.30;21.60;101625.00;;;;5064448;28;20029;-73
2022/10/29 07:21:48;;;;;;;4.97;3.03;;;22.50;53.20;21.60;101629.00;;;;5066827;28;20581;-73
2022/10/29 07:24:16;;;;;;;6.97;2.83;;;22.60;53.30;21.60;101629.00;;;;5067185;28;20115;-73
2022/10/29 07:26:42;;;;;;;4.22;3.15;;;22.60;53.30;21.60;101635.00;;;;5068188;28;20550;-73
2022/10/29 07:29:08;;;;;;;7.43;3.22;;;22.50;53.20;21.60;101627.00;;;;5039788;28;20151;-74
2022/10/29 07:31:34;;;;;;;9.60;3.33;;;22.50;53.20;21.60;101616.00;;;;5045458;28;20044;-73
2022/10/29 07:34:00;;;;;;;7.20;2.95;;;22.60;53.30;21.60;101613.00;;;;5024582;28;20482;-73
2022/10/29 07:36:26;;;;;;;5.37;2.70;;;22.50;53.20;21.60;101605.00;;;;5065956;28;20424;-74
2022/10/29 07:38:51;;;;;;;4.83;3.40;;;22.50;53.30;21.60;101601.00;;;;5051211;28;20047;-73
2022/10/29 07:41:17;;;;;;;6.67;3.40;;;22.60;53.30;21.60;101605.00;;;;5049889;28;20078;-74
2022/10/29 07:43:43;;;;;;;5.97;3.03;;;22.50;53.20;21.60;101604.00;;;;5063384;28;20449;-73
2022/10/29 07:46:09;;;;;;;7.97;3.20;;;22.50;53.20;21.60;101606.00;;;;5065435;28;20258;-73
2022/10/29 07:48:34;;;;;;;7.30;3.17;;;22.50;53.20;21.60;101600.00;;;;5066343;28;21042;-75
2022/10/29 07:51:00;;;;;;;7.00;3.47;;;22.60;53.30;21.60;101596.00;;;;5069497;28;20533;-73
2022/10/29 07:53:26;;;;;;;6.43;3.10;;;22.60;53.30;21.60;101599.00;;;;5052075;28;20033;-74
2022/10/29 07:55:55;;;;;;;6.30;3.15;;;22.60;53.30;21.60;101592.00;;;;5068208;28;20355;-74
2022/10/29 07:58:20;;;;;;;5.22;2.78;;;22.60;53.30;21.60;101598.00;;;;5063350;28;20110;-74
2022/10/29 08:00:46;;;;;;;8.27;3.38;;;22.50;53.20;21.60;101598.00;;;;5044793;28;20033;-74
2022/10/29 08:03:12;;;;;;;4.27;2.60;;;22.60;54.00;21.60;101592.00;;;;5063665;28;20027;-74
2022/10/29 08:05:38;;;;;;;6.17;2.97;;;22.60;53.30;21.60;101597.00;;;;5062622;28;20496;-74
2022/10/29 08:08:04;;;;;;;9.17;3.07;;;22.60;53.30;21.60;101594.00;;;;5051074;28;20463;-74
2022/10/29 08:10:31;;;;;;;6.55;2.90;;;22.60;53.30;21.60;101597.00;;;;5067224;28;20021;-74
2022/10/29 08:12:59;;;;;;;6.32;3.45;;;22.60;53.20;21.60;101605.00;;;;5064694;28;20432;-73
2022/10/29 08:15:26;;;;;;;4.85;2.58;;;22.60;53.30;21.60;101599.00;;;;5045381;28;20082;-75
2022/10/29 08:18:10;;;;;;;5.78;3.10;;;22.60;53.20;21.60;101607.00;;;;5043454;28;20099;-75
2022/10/29 08:20:36;;;;;;;8.20;3.90;;;22.60;53.30;21.60;101608.00;;;;5049275;28;20503;-74
2022/10/29 08:23:02;;;;;;;5.43;3.20;;;22.60;53.30;21.60;101612.00;;;;5068731;28;20020;-72
2022/10/29 08:25:28;;;;;;;6.20;3.00;;;22.60;53.30;21.70;101615.00;;;;5067919;28;20063;-80
2022/10/29 08:28:01;;;;;;;6.10;3.45;;;22.60;53.30;21.60;101616.00;;;;5025209;28;20036;-71
2022/10/29 08:30:27;;;;;;;9.00;3.70;;;22.60;53.30;21.70;101615.00;;;;5070299;28;20066;-72
2022/10/29 08:32:53;;;;;;;4.38;3.20;;;22.60;53.30;21.60;101608.00;;;;5074375;28;20021;-72
2022/10/29 08:35:18;;;;;;;4.87;3.10;;;22.60;53.30;21.60;101600.00;;;;5065751;28;20405;-71
2022/10/29 08:37:44;;;;;;;6.60;3.37;;;22.60;53.30;21.70;101601.00;;;;5070064;28;20178;-71
2022/10/29 08:40:27;;;;;;;8.07;3.90;;;22.60;54.00;21.60;101599.00;;;;5053885;28;20531;-71
2022/10/29 08:43:17;;;;;;;6.85;3.47;;;22.60;53.30;21.60;101594.00;;;;5054915;28;20496;-71
2022/10/29 08:45:53;;;;;;;5.40;3.33;;;22.60;53.30;21.60;101587.00;;;;5056055;28;20040;-71
2022/10/29 08:48:37;;;;;;;7.70;3.50;;;22.60;53.30;21.60;101586.00;;;;5055330;28;20496;-71
2022/10/29 08:51:29;;;;;;;5.63;3.55;;;22.60;53.30;21.60;101601.00;;;;5034710;28;20037;-71
2022/10/29 08:53:56;;;;;;;5.88;3.60;;;22.60;53.30;21.60;101600.00;;;;5034272;28;20051;-72
2022/10/29 08:56:27;;;;;;;6.50;3.20;;;22.70;53.30;21.60;101595.00;;;;5044249;28;20067;-72
2022/10/29 08:59:31;;;;;;;4.55;3.20;;;22.70;53.40;21.60;101595.00;;;;5052098;28;20020;-72
2022/10/29 09:01:56;;;;;;;6.72;2.88;;;22.60;53.30;21.60;101598.00;;;;5036327;28;20040;-72
2022/10/29 09:04:26;;;;;;;5.70;3.03;;;22.60;53.30;21.60;101601.00;;;;5048897;28;20028;-71
2022/10/29 09:07:33;;;;;;;9.35;4.13;;;22.60;53.40;21.60;101596.00;;;;5070315;28;20536;-72
2022/10/29 09:10:40;;;;;;;7.18;3.70;;;22.70;53.40;21.60;101594.00;;;;5053794;28;20029;-72
2022/10/29 09:13:27;;;;;;;8.30;3.65;;;22.70;53.40;21.60;101594.00;;;;5054953;28;20024;-72
2022/10/29 09:16:44;;;;;;;4.85;3.08;;;22.70;53.40;21.60;101596.00;;;;5038329;28;20378;-71
2022/10/29 09:19:40;;;;;;;5.55;3.67;;;22.60;53.30;21.60;101586.00;;;;5059543;28;20036;-71
2022/10/29 09:22:44;;;;;;;4.40;2.92;;;22.70;53.40;21.60;101596.00;;;;5032498;28;20037;-73
2022/10/29 09:26:10;;;;;;;5.45;3.50;;;22.60;53.40;21.60;101600.00;;;;5056561;28;20135;-71
2022/10/29 09:29:00;;;;;;;7.03;3.38;;;22.60;53.40;21.60;101591.00;;;;4948465;29;20073;-71
2022/10/29 09:31:46;;;;;;;5.78;3.00;;;22.70;53.40;21.60;101586.00;;;;4935725;29;20574;-71
2022/10/29 09:34:29;;;;;;;8.27;3.17;;;22.70;53.40;21.60;101584.00;;;;5017855;28;20127;-71
2022/10/29 09:37:16;;;;;;;5.63;3.50;;;22.60;53.40;21.60;101583.00;;;;5051682;28;20127;-72
2022/10/29 09:39:44;;;;;;;6.65;3.13;;;22.60;53.40;21.60;101585.00;;;;5061653;28;20028;-72
2022/10/29 09:42:13;;;;;;;5.38;3.33;;;22.70;53.40;21.60;101575.00;;;;5045525;28;20390;-72
2022/10/29 09:44:49;;;;;;;7.80;3.75;;;22.70;53.50;21.70;101580.00;;;;5062591;28;20090;-77
2022/10/29 09:47:48;;;;;;;6.53;3.47;;;22.70;53.40;21.70;101574.00;;;;5044032;28;20514;-78
2022/10/29 09:50:42;;;;;;;5.47;3.60;;;22.70;53.50;21.70;101568.00;;;;5041159;28;20028;-75
2022/10/29 09:53:08;;;;;;;7.38;3.85;;;22.70;53.40;21.70;101561.00;;;;5047658;28;20106;-76
2022/10/29 09:55:42;;;;;;;7.97;3.53;;;22.70;53.40;21.70;101551.00;;;;5059891;28;20036;-73
2022/10/29 09:58:28;;;;;;;6.80;3.63;;;22.70;53.50;21.70;101545.00;;;;5045199;28;20432;-73
2022/10/29 10:00:55;;;;;;;5.35;3.60;;;22.70;53.40;21.70;101549.00;;;;5062688;28;20032;-73
2022/10/29 10:03:29;;;;;;;5.25;2.95;;;22.70;53.40;21.70;101558.00;;;;5067219;28;20039;-73
2022/10/29 10:06:04;;;;;;;5.60;3.47;;;22.70;53.40;21.70;101553.00;;;;5049550;28;20037;-73
2022/10/29 10:08:30;;;;;;;6.47;3.50;;;22.70;53.40;21.70;101554.00;;;;5046478;28;20098;-79
2022/10/29 10:11:00;;;;;;;8.43;3.83;;;22.70;53.50;21.70;101548.00;;;;5042458;28;20231;-73
2022/10/29 10:13:31;;;;;;;11.55;4.35;;;22.70;53.40;21.70;101549.00;;;;5048731;28;20032;-73
2022/10/29 10:16:01;;;;;;;9.70;4.07;;;22.70;53.50;21.70;101549.00;;;;5067355;28;20032;-73
2022/10/29 10:18:39;;;;;;;8.18;3.88;;;22.70;53.70;21.70;101545.00;;;;5051079;28;20083;-73
2022/10/29 10:21:06;;;;;;;16.65;4.68;;;22.70;53.70;21.70;101549.00;;;;5067842;28;20032;-73
2022/10/29 10:23:47;;;;;;;9.68;3.70;;;22.70;53.70;21.70;101551.00;;;;5049668;28;20065;-74
2022/10/29 10:26:31;;;;;;;10.30;4.03;;;22.70;53.80;21.70;101547.00;;;;5033295;28;20029;-73
2022/10/29 10:29:16;;;;;;;8.75;3.53;;;22.70;53.60;21.70;101539.00;;;;5068218;28;20029;-73
2022/10/29 10:31:43;;;;;;;7.30;3.53;;;22.80;53.70;21.70;101534.00;;;;5048378;28;20473;-73
2022/10/29 10:34:13;;;;;;;8.32;3.90;;;22.70;53.60;21.70;101549.00;;;;5064789;28;20431;-73
2022/10/29 10:36:42;;;;;;;9.25;3.88;;;22.70;53.60;21.80;101529.00;;;;5069873;28;20417;-73
2022/10/29 10:39:41;;;;;;;11.50;3.92;;;22.80;53.60;21.70;101528.00;;;;5037083;28;20048;-74
2022/10/29 10:42:23;;;;;;;9.25;3.90;;;22.80;53.70;21.70;101527.00;;;;5030690;28;20040;-74
2022/10/29 10:45:00;;;;;;;8.20;3.85;;;22.80;53.70;21.70;101528.00;;;;5051722;28;20028;-74
2022/10/29 10:47:32;;;;;;;6.15;3.47;;;22.80;53.60;21.80;101523.00;;;;5033935;28;20470;-74
2022/10/29 10:50:24;;;;;;;7.70;4.05;;;22.80;53.60;21.70;101526.00;;;;5051025;28;20028;-77
2022/10/29 10:52:49;;;;;;;8.77;4.28;;;22.80;53.70;21.70;101518.00;;;;5050713;28;20033;-74
2022/10/29 10:55:33;;;;;;;4.90;2.70;;;22.80;53.60;21.70;101525.00;;;;5042978;28;20085;-75
2022/10/29 10:58:17;;;;;;;5.30;3.55;;;22.80;53.60;21.70;101508.00;;;;5050234;28;20107;-74
2022/10/29 11:00:48;;;;;;;4.68;3.15;;;22.80;53.60;21.70;101510.00;;;;5045784;28;20517;-74
2022/10/29 11:03:26;;;;;;;8.15;3.97;;;22.80;53.70;21.70;101503.00;;;;5024939;28;20028;-74